Fallon, Montana
Current Conditions -  °F | °C
As of 2:35 PM on Wednesday 17 Dec 2014 (Local Time) from KGDV Reporting Station
Overcast Overcast  
Wind Chill: 12°   Ceiling: 1400
Heat Index: 21°   Visibility: 10mi
Dew Point: 18°   Wind: 8mph
Humidity: 86%   Direction: 140°SE
Pressure: 30.03"   Gusts: NA
Location:  46.83°N, 105.13°W
Report Text: KGDV 172135Z AUTO 14007KT 10SM OVC014 M06/M08 A3003 RMK AO1
Loading
Personal Weather Stations






























Interactive Weather Map New forecast layout! Learn more

10-Day Weather Forecast

Advertisements
Track Severe Weather on mobile